createdAt,value
2019-05-07T00:01:23.392Z,64.96
2019-05-07T00:03:53.637Z,64.05
2019-05-07T00:06:23.845Z,64.30
2019-05-07T00:08:53.985Z,63.33
2019-05-07T00:11:24.118Z,63.72
2019-05-07T00:13:54.238Z,63.98
2019-05-07T00:16:24.377Z,63.47
2019-05-07T00:18:54.518Z,63.17
2019-05-07T00:21:24.642Z,63.03
2019-05-07T00:23:54.771Z,62.26
2019-05-07T00:26:24.934Z,62.16
2019-05-07T00:28:55.142Z,62.36
2019-05-07T00:31:26.327Z,62.43
2019-05-07T00:33:56.456Z,63.06
2019-05-07T00:36:32.886Z,62.91
2019-05-07T00:39:16.840Z,62.99
2019-05-07T00:42:09.137Z,64.06
2019-05-07T00:44:56.951Z,63.86
2019-05-07T00:47:27.186Z,63.45
2019-05-07T00:49:59.609Z,63.41
2019-05-07T00:52:29.729Z,63.29
2019-05-07T00:54:59.863Z,63.63
2019-05-07T00:57:32.249Z,64.26
2019-05-07T01:00:02.942Z,63.47
2019-05-07T01:02:33.145Z,63.90
2019-05-07T01:05:03.305Z,65.09
2019-05-07T01:07:33.414Z,64.58
2019-05-07T01:10:04.435Z,64.20
2019-05-07T01:12:34.546Z,64.57
2019-05-07T01:15:06.412Z,64.40
2019-05-07T01:17:36.539Z,64.71
2019-05-07T01:20:06.696Z,64.87
2019-05-07T01:22:36.822Z,64.69
2019-05-07T01:25:07.045Z,63.74
2019-05-07T01:27:37.266Z,64.06
2019-05-07T01:30:07.545Z,64.00
2019-05-07T01:32:53.310Z,64.43
2019-05-07T01:35:45.386Z,64.44
2019-05-07T01:38:17.331Z,64.91
2019-05-07T01:40:47.465Z,64.57
2019-05-07T01:43:17.585Z,65.62
2019-05-07T01:45:49.815Z,64.30
2019-05-07T01:48:19.523Z,64.52
2019-05-07T01:50:49.715Z,64.47
2019-05-07T01:53:19.838Z,64.73
2019-05-07T01:55:52.233Z,64.14
2019-05-07T01:58:22.206Z,64.28
2019-05-07T02:00:53.212Z,64.35
2019-05-07T02:03:45.168Z,65.12
2019-05-07T02:06:26.506Z,64.73
2019-05-07T02:09:12.970Z,64.65
2019-05-07T02:11:45.077Z,65.54
2019-05-07T02:14:15.178Z,65.12
2019-05-07T02:16:45.305Z,64.91
2019-05-07T02:19:15.418Z,64.38
2019-05-07T02:21:46.643Z,64.81
2019-05-07T02:24:16.847Z,64.69
2019-05-07T02:26:47.019Z,64.65
2019-05-07T02:29:17.133Z,64.43
2019-05-07T02:31:47.243Z,64.60
2019-05-07T02:34:17.355Z,65.12
2019-05-07T02:36:47.480Z,65.01
2019-05-07T02:39:26.346Z,64.69
2019-05-07T02:41:56.522Z,64.76
2019-05-07T02:44:26.639Z,64.61
2019-05-07T02:47:15.778Z,64.66
2019-05-07T02:49:53.595Z,64.46
2019-05-07T02:52:43.707Z,64.37
2019-05-07T02:55:23.283Z,64.16
2019-05-07T02:57:54.298Z,64.37
2019-05-07T03:00:24.607Z,64.24
2019-05-07T03:02:54.756Z,65.24
2019-05-07T03:05:24.883Z,64.87
2019-05-07T03:07:55.021Z,65.53
2019-05-07T03:10:25.129Z,64.84
2019-05-07T03:12:55.375Z,65.21
2019-05-07T03:15:25.474Z,65.29
2019-05-07T03:17:55.626Z,65.69
2019-05-07T03:20:33.441Z,65.35
2019-05-07T03:23:04.443Z,66.32
2019-05-07T03:25:57.242Z,66.33
2019-05-07T03:28:27.389Z,66.14
2019-05-07T03:31:16.035Z,66.70
2019-05-07T03:34:07.911Z,65.33
2019-05-07T03:36:46.613Z,65.62
2019-05-07T03:39:14.447Z,65.70
2019-05-07T03:41:44.623Z,64.32
2019-05-07T03:44:24.539Z,64.26
2019-05-07T03:47:02.331Z,64.17
2019-05-07T03:49:29.738Z,64.15
2019-05-07T03:52:03.883Z,63.28
2019-05-07T03:54:33.934Z,62.48
2019-05-07T03:57:11.445Z,63.74
2019-05-07T03:59:39.670Z,63.61
2019-05-07T04:02:09.882Z,62.38
2019-05-07T04:04:43.303Z,61.97
2019-05-07T04:07:14.141Z,61.84
2019-05-07T04:09:44.310Z,61.07
2019-05-07T04:12:14.475Z,61.83
2019-05-07T04:14:44.657Z,61.64
2019-05-07T04:17:22.414Z,62.03
2019-05-07T04:19:46.732Z,61.33
2019-05-07T04:22:19.524Z,61.95
2019-05-07T04:25:07.327Z,61.22
2019-05-07T04:27:47.298Z,61.36
2019-05-07T04:30:17.510Z,61.08
2019-05-07T04:32:52.976Z,60.76
2019-05-07T04:35:53.529Z,60.55
2019-05-07T04:38:23.814Z,60.67
2019-05-07T04:40:54.577Z,61.32
2019-05-07T04:43:24.692Z,59.92
2019-05-07T04:45:54.930Z,60.95
2019-05-07T04:48:25.096Z,61.38
2019-05-07T04:50:57.563Z,60.14
2019-05-07T04:53:27.681Z,60.67
2019-05-07T04:55:58.219Z,60.98
2019-05-07T04:58:28.336Z,61.44
2019-05-07T05:00:58.988Z,61.20
2019-05-07T05:03:33.975Z,61.59
2019-05-07T05:06:02.903Z,60.77
2019-05-07T05:08:33.067Z,60.01
2019-05-07T05:11:03.674Z,59.51
2019-05-07T05:13:33.927Z,59.20
2019-05-07T05:16:25.162Z,60.15
2019-05-07T05:18:57.062Z,60.19
2019-05-07T05:21:47.375Z,58.33
2019-05-07T05:24:32.961Z,58.03
2019-05-07T05:27:04.268Z,57.79
2019-05-07T05:29:36.832Z,58.06
2019-05-07T05:32:06.993Z,57.41
2019-05-07T05:34:37.108Z,57.03
2019-05-07T05:37:07.376Z,58.16
2019-05-07T05:39:37.509Z,57.70
2019-05-07T05:42:26.604Z,57.70
2019-05-07T05:44:56.897Z,57.20
2019-05-07T05:47:27.119Z,57.56
2019-05-07T05:49:57.256Z,56.66
2019-05-07T05:52:39.830Z,57.07
2019-05-07T05:55:15.951Z,57.27
2019-05-07T05:58:09.479Z,55.67
2019-05-07T06:00:53.028Z,56.51
2019-05-07T06:03:42.919Z,56.07
2019-05-07T06:06:32.586Z,55.73
2019-05-07T06:09:19.342Z,55.17
2019-05-07T06:12:08.508Z,54.22
2019-05-07T06:14:45.378Z,55.07
2019-05-07T06:17:51.806Z,54.34
2019-05-07T06:20:43.556Z,54.59
2019-05-07T06:23:28.683Z,52.47
2019-05-07T06:25:59.544Z,52.73
2019-05-07T06:28:33.010Z,51.46
2019-05-07T06:31:03.868Z,52.57
2019-05-07T06:33:33.995Z,51.92
2019-05-07T06:36:04.164Z,52.28
2019-05-07T06:38:40.030Z,53.12
2019-05-07T06:41:28.079Z,53.06
2019-05-07T06:44:02.132Z,52.20
2019-05-07T06:46:32.518Z,52.44
2019-05-07T06:49:02.635Z,52.49
2019-05-07T06:51:33.015Z,52.33
2019-05-07T06:54:03.092Z,52.87
2019-05-07T06:56:33.235Z,52.24
2019-05-07T06:59:18.186Z,52.14
2019-05-07T07:02:07.295Z,51.80
2019-05-07T07:04:42.427Z,51.60
2019-05-07T07:07:27.393Z,51.79
2019-05-07T07:10:22.537Z,51.35
2019-05-07T07:12:53.102Z,51.11
2019-05-07T07:15:23.324Z,51.52
2019-05-07T07:17:53.438Z,51.68
2019-05-07T07:20:23.768Z,51.72
2019-05-07T07:22:53.924Z,52.20
2019-05-07T07:25:24.034Z,52.10
2019-05-07T07:27:54.171Z,51.92
2019-05-07T07:30:42.064Z,51.65
2019-05-07T07:33:12.913Z,51.47
2019-05-07T07:35:43.027Z,51.39
2019-05-07T07:38:32.892Z,51.18
2019-05-07T07:41:18.675Z,50.99
2019-05-07T07:43:48.871Z,51.09
2019-05-07T07:46:19.003Z,51.13
2019-05-07T07:49:03.265Z,51.15
2019-05-07T07:51:36.710Z,51.27
2019-05-07T07:53:52.773Z,51.31
2019-05-07T07:56:28.159Z,51.32
2019-05-07T07:59:23.335Z,51.46
2019-05-07T08:01:58.856Z,51.86
2019-05-07T08:04:28.992Z,51.50
2019-05-07T08:07:05.403Z,50.39
2019-05-07T08:09:36.232Z,50.03
2019-05-07T08:12:08.077Z,49.66
2019-05-07T08:14:38.358Z,49.44
2019-05-07T08:17:09.064Z,49.27
2019-05-07T08:19:39.201Z,49.12
2019-05-07T08:22:09.332Z,48.83
2019-05-07T08:24:39.470Z,49.20
2019-05-07T08:27:09.618Z,48.68
2019-05-07T08:29:39.750Z,49.23
2019-05-07T08:32:22.567Z,49.27
2019-05-07T08:34:57.676Z,48.79
2019-05-07T08:37:27.802Z,49.28
2019-05-07T08:39:57.927Z,49.57
2019-05-07T08:42:28.042Z,49.35
2019-05-07T08:45:21.630Z,48.26
2019-05-07T08:47:52.646Z,47.82
2019-05-07T08:50:22.883Z,47.78
2019-05-07T08:52:52.998Z,47.64
2019-05-07T08:55:23.144Z,47.54
2019-05-07T08:57:53.268Z,47.58
2019-05-07T09:00:24.194Z,47.69
2019-05-07T09:02:54.318Z,47.84
2019-05-07T09:05:24.476Z,47.92
2019-05-07T09:07:54.597Z,48.00
2019-05-07T09:10:24.755Z,48.01
2019-05-07T09:12:54.882Z,48.33
2019-05-07T09:15:25.064Z,48.16
2019-05-07T09:17:55.359Z,47.91
2019-05-07T09:20:25.483Z,47.85
2019-05-07T09:22:55.620Z,47.79
2019-05-07T09:25:26.851Z,47.47
2019-05-07T09:27:57.076Z,47.74
2019-05-07T09:30:52.607Z,48.36
2019-05-07T09:33:42.770Z,48.59
2019-05-07T09:36:22.692Z,48.29
2019-05-07T09:38:56.855Z,48.87
2019-05-07T09:41:28.165Z,49.30
2019-05-07T09:43:58.987Z,48.51
2019-05-07T09:46:29.213Z,46.82
2019-05-07T09:48:59.323Z,45.83
2019-05-07T09:51:29.459Z,44.68
2019-05-07T09:53:59.600Z,44.98
2019-05-07T09:56:31.884Z,44.55
2019-05-07T09:59:02.681Z,43.99
2019-05-07T10:01:32.852Z,43.75
2019-05-07T10:04:02.981Z,43.96
2019-05-07T10:06:33.272Z,43.92
2019-05-07T10:09:04.200Z,43.98
2019-05-07T10:11:43.414Z,45.26
2019-05-07T10:14:13.611Z,45.08
2019-05-07T10:16:56.355Z,45.01
2019-05-07T10:19:26.491Z,45.11
2019-05-07T10:21:56.626Z,44.85
2019-05-07T10:24:26.745Z,45.01
2019-05-07T10:26:57.092Z,44.90
2019-05-07T10:29:27.263Z,45.08
2019-05-07T10:31:57.419Z,44.98
2019-05-07T10:34:27.563Z,45.29
2019-05-07T10:36:57.783Z,44.99
2019-05-07T10:39:27.912Z,44.56
2019-05-07T10:41:58.041Z,44.78
2019-05-07T10:44:32.564Z,45.01
2019-05-07T10:47:22.276Z,44.77
2019-05-07T10:50:11.937Z,44.13
2019-05-07T10:52:42.588Z,43.83
2019-05-07T10:55:13.955Z,43.64
2019-05-07T10:57:45.227Z,43.46
2019-05-07T11:00:18.739Z,42.89
2019-05-07T11:02:48.923Z,42.94
2019-05-07T11:05:19.149Z,42.92
2019-05-07T11:07:49.277Z,43.39
2019-05-07T11:10:21.803Z,43.23
2019-05-07T11:12:51.781Z,43.18
2019-05-07T11:15:22.262Z,43.18
2019-05-07T11:18:02.680Z,42.82
2019-05-07T11:20:46.090Z,42.54
2019-05-07T11:23:04.852Z,41.63
2019-05-07T11:25:35.159Z,41.13
2019-05-07T11:28:05.418Z,40.51
2019-05-07T11:30:35.539Z,40.26
2019-05-07T11:33:05.688Z,39.69
2019-05-07T11:35:35.822Z,39.17
2019-05-07T11:38:17.648Z,39.09
2019-05-07T11:40:38.683Z,39.07
2019-05-07T11:43:24.815Z,38.79
2019-05-07T11:46:05.868Z,38.73
2019-05-07T11:48:39.481Z,38.87
2019-05-07T11:51:19.027Z,39.12
2019-05-07T11:54:12.739Z,38.91
2019-05-07T11:56:43.109Z,39.50
2019-05-07T11:59:13.710Z,39.63
2019-05-07T12:01:48.115Z,39.47
2019-05-07T12:04:18.389Z,39.63
2019-05-07T12:06:48.513Z,38.71
2019-05-07T12:09:18.655Z,38.57
2019-05-07T12:11:48.769Z,38.19
2019-05-07T12:14:28.870Z,38.33
2019-05-07T12:16:50.812Z,38.53
2019-05-07T12:19:22.664Z,38.16
2019-05-07T12:21:52.895Z,38.46
2019-05-07T12:24:23.056Z,38.43
2019-05-07T12:26:53.252Z,38.16
2019-05-07T12:29:23.447Z,38.86
2019-05-07T12:32:12.592Z,38.76
2019-05-07T12:34:52.738Z,39.38
2019-05-07T12:37:22.975Z,38.86
2019-05-07T12:39:53.140Z,38.12
2019-05-07T12:42:23.275Z,38.20
2019-05-07T12:44:53.454Z,37.36
2019-05-07T12:47:23.615Z,37.51
2019-05-07T12:49:53.828Z,37.61
2019-05-07T12:52:32.843Z,37.20
2019-05-07T12:55:15.159Z,37.59
2019-05-07T12:57:45.276Z,37.80
2019-05-07T13:00:33.742Z,37.79
2019-05-07T13:03:21.908Z,36.83
2019-05-07T13:05:52.207Z,36.65
2019-05-07T13:08:23.395Z,36.53
2019-05-07T13:10:53.559Z,36.60
2019-05-07T13:13:23.669Z,36.52
2019-05-07T13:15:53.808Z,36.90
2019-05-07T13:18:23.933Z,37.18
2019-05-07T13:20:54.071Z,37.02
2019-05-07T13:23:24.199Z,37.82
2019-05-07T13:25:54.443Z,36.95
2019-05-07T13:28:24.563Z,37.35
2019-05-07T13:30:54.728Z,36.94
2019-05-07T13:33:27.134Z,36.59
2019-05-07T13:35:57.406Z,36.45
2019-05-07T13:38:42.564Z,37.02
2019-05-07T13:41:38.004Z,37.32
2019-05-07T13:44:22.742Z,37.14
2019-05-07T13:47:12.557Z,37.63
2019-05-07T13:49:42.876Z,37.90
2019-05-07T13:52:14.269Z,37.71
2019-05-07T13:54:44.501Z,37.64
2019-05-07T13:57:14.868Z,38.37
2019-05-07T13:59:46.856Z,37.93
2019-05-07T14:02:17.907Z,38.72
2019-05-07T14:04:49.486Z,38.29
2019-05-07T14:07:21.628Z,38.94
2019-05-07T14:09:52.721Z,38.15
2019-05-07T14:12:23.167Z,37.85
2019-05-07T14:14:53.399Z,38.20
2019-05-07T14:17:24.651Z,38.16
2019-05-07T14:19:54.845Z,37.60
2019-05-07T14:22:25.073Z,38.12
2019-05-07T14:24:55.190Z,37.86
2019-05-07T14:27:25.359Z,38.68
2019-05-07T14:29:55.486Z,38.46
2019-05-07T14:32:43.742Z,37.66
2019-05-07T14:35:36.027Z,38.88
2019-05-07T14:38:18.533Z,39.28
2019-05-07T14:40:48.679Z,39.34
2019-05-07T14:43:25.802Z,39.06
2019-05-07T14:46:04.816Z,38.95
2019-05-07T14:48:36.301Z,38.24
2019-05-07T14:51:07.109Z,39.01
2019-05-07T14:53:37.273Z,38.87
2019-05-07T14:56:07.404Z,38.78
2019-05-07T14:58:37.599Z,38.61
2019-05-07T15:01:07.852Z,39.66
2019-05-07T15:03:38.036Z,39.30
2019-05-07T15:06:08.676Z,40.17
2019-05-07T15:08:38.877Z,40.11
2019-05-07T15:11:09.152Z,40.57
2019-05-07T15:13:39.476Z,40.42
2019-05-07T15:16:11.919Z,40.72
2019-05-07T15:19:00.383Z,40.75
2019-05-07T15:21:32.393Z,41.62
2019-05-07T15:24:04.202Z,41.30
2019-05-07T15:26:35.866Z,40.84
2019-05-07T15:29:12.329Z,40.71
2019-05-07T15:31:58.191Z,40.72
2019-05-07T15:34:28.436Z,40.44
2019-05-07T15:36:58.579Z,40.92
2019-05-07T15:39:28.731Z,41.32
2019-05-07T15:41:58.893Z,41.51
2019-05-07T15:44:29.080Z,41.03
2019-05-07T15:47:02.593Z,41.42
2019-05-07T15:49:32.816Z,42.12
2019-05-07T15:52:05.560Z,42.12
2019-05-07T15:54:35.926Z,42.25
2019-05-07T15:57:08.360Z,42.07
2019-05-07T15:59:38.535Z,42.42
2019-05-07T16:02:17.450Z,42.46
2019-05-07T16:04:48.422Z,42.46
2019-05-07T16:07:18.621Z,42.92
2019-05-07T16:09:48.803Z,43.11
2019-05-07T16:12:22.728Z,43.12
2019-05-07T16:14:52.682Z,43.73
2019-05-07T16:17:32.914Z,44.33
2019-05-07T16:20:03.343Z,45.20
2019-05-07T16:22:37.696Z,45.19
2019-05-07T16:25:08.212Z,45.05
2019-05-07T16:27:44.200Z,45.20
2019-05-07T16:30:14.565Z,45.45
2019-05-07T16:32:44.720Z,45.33
2019-05-07T16:35:16.401Z,45.15
2019-05-07T16:37:46.662Z,44.89
2019-05-07T16:40:17.095Z,44.93
2019-05-07T16:42:47.268Z,44.64
2019-05-07T16:45:17.499Z,44.82
2019-05-07T16:47:47.682Z,44.21
2019-05-07T16:50:18.246Z,43.62
2019-05-07T16:52:52.217Z,43.67
2019-05-07T16:55:23.561Z,44.03
2019-05-07T16:58:20.638Z,44.13
2019-05-07T17:00:53.518Z,43.73
2019-05-07T17:03:28.442Z,43.68
2019-05-07T17:05:58.729Z,43.91
2019-05-07T17:08:49.226Z,44.30
2019-05-07T17:11:19.548Z,44.29
2019-05-07T17:13:51.775Z,43.80
2019-05-07T17:16:22.794Z,43.93
2019-05-07T17:18:53.123Z,44.08
2019-05-07T17:21:23.416Z,44.14
2019-05-07T17:23:54.680Z,44.45
2019-05-07T17:26:25.170Z,45.34
2019-05-07T17:28:55.368Z,45.16
2019-05-07T17:31:25.596Z,45.64
2019-05-07T17:33:55.772Z,45.72
2019-05-07T17:36:25.981Z,46.40
2019-05-07T17:38:56.107Z,46.33
2019-05-07T17:41:27.295Z,46.40
2019-05-07T17:43:57.651Z,46.67
2019-05-07T17:46:27.832Z,46.81
2019-05-07T17:48:58.048Z,46.91
2019-05-07T17:51:47.162Z,47.06
2019-05-07T17:54:17.341Z,47.10
2019-05-07T17:56:47.547Z,47.21
2019-05-07T17:59:17.723Z,47.31
2019-05-07T18:02:25.520Z,47.67
2019-05-07T18:04:55.658Z,48.69
2019-05-07T18:07:25.859Z,48.61
2019-05-07T18:09:56.258Z,48.79
2019-05-07T18:12:26.380Z,48.89
2019-05-07T18:14:56.858Z,48.42
2019-05-07T18:17:47.463Z,48.11
2019-05-07T18:20:17.579Z,48.24
2019-05-07T18:22:47.729Z,48.14
2019-05-07T18:25:17.903Z,48.37
2019-05-07T18:27:48.138Z,48.07
2019-05-07T18:30:18.347Z,47.73
2019-05-07T18:32:53.771Z,47.67
2019-05-07T18:35:23.910Z,47.74
2019-05-07T18:37:54.087Z,47.87
2019-05-07T18:40:24.430Z,47.77
2019-05-07T18:42:54.555Z,47.76
2019-05-07T18:45:24.724Z,47.62
2019-05-07T18:47:54.885Z,47.47
2019-05-07T18:50:25.255Z,47.53
2019-05-07T18:52:55.387Z,47.56
2019-05-07T18:55:25.534Z,47.84
2019-05-07T18:57:55.728Z,47.93
2019-05-07T19:00:31.764Z,48.01
2019-05-07T19:03:03.391Z,47.83
2019-05-07T19:05:37.272Z,47.63
2019-05-07T19:08:08.773Z,47.95
2019-05-07T19:10:42.742Z,47.99
2019-05-07T19:13:12.357Z,48.06
2019-05-07T19:15:42.485Z,48.22
2019-05-07T19:18:13.000Z,48.28
2019-05-07T19:20:43.258Z,48.30
2019-05-07T19:23:13.463Z,48.65
2019-05-07T19:25:43.647Z,48.75
2019-05-07T19:28:15.035Z,48.95
2019-05-07T19:30:47.826Z,49.28
2019-05-07T19:33:19.153Z,49.38
2019-05-07T19:35:49.377Z,49.39
2019-05-07T19:38:19.592Z,49.55
2019-05-07T19:40:49.797Z,49.76
2019-05-07T19:43:19.995Z,49.90
2019-05-07T19:45:52.391Z,49.90
2019-05-07T19:48:24.471Z,50.08
2019-05-07T19:50:55.016Z,50.35
2019-05-07T19:53:25.414Z,50.28
2019-05-07T19:56:08.175Z,50.39
2019-05-07T19:58:41.907Z,50.63
2019-05-07T20:01:13.632Z,50.67
2019-05-07T20:03:43.888Z,50.73
2019-05-07T20:06:14.030Z,50.89
2019-05-07T20:08:44.604Z,50.90
2019-05-07T20:11:22.408Z,51.08
2019-05-07T20:13:53.099Z,51.12
2019-05-07T20:16:23.377Z,51.20
2019-05-07T20:18:55.857Z,51.38
2019-05-07T20:21:26.085Z,51.55
2019-05-07T20:23:56.428Z,51.64
2019-05-07T20:26:26.737Z,51.88
2019-05-07T20:28:59.031Z,51.96
2019-05-07T20:31:29.231Z,52.09
2019-05-07T20:33:59.459Z,52.12
2019-05-07T20:36:29.629Z,52.16
2019-05-07T20:39:02.018Z,52.27
2019-05-07T20:41:33.267Z,52.33
2019-05-07T20:44:05.581Z,52.35
2019-05-07T20:46:35.856Z,52.43
2019-05-07T20:49:06.074Z,52.41
2019-05-07T20:51:36.182Z,52.54
2019-05-07T20:54:32.479Z,52.71
2019-05-07T20:57:31.956Z,52.81
2019-05-07T21:00:02.759Z,52.73
2019-05-07T21:02:44.494Z,53.06
2019-05-07T21:05:06.877Z,53.16
2019-05-07T21:07:37.000Z,53.54
2019-05-07T21:10:07.305Z,53.72
2019-05-07T21:12:37.426Z,53.95
2019-05-07T21:15:07.905Z,54.52
2019-05-07T21:17:38.032Z,55.01
2019-05-07T21:20:08.396Z,54.97
2019-05-07T21:22:38.525Z,54.60
2019-05-07T21:25:08.792Z,54.25
2019-05-07T21:27:38.920Z,54.26
2019-05-07T21:30:09.067Z,54.20
2019-05-07T21:32:39.197Z,55.07
2019-05-07T21:35:09.463Z,54.88
2019-05-07T21:37:41.879Z,54.97
2019-05-07T21:40:13.362Z,54.96
2019-05-07T21:42:44.291Z,55.09
2019-05-07T21:45:14.426Z,55.29
2019-05-07T21:47:44.544Z,55.74
2019-05-07T21:50:14.904Z,56.36
2019-05-07T21:52:49.234Z,56.00
2019-05-07T21:55:32.202Z,55.88
2019-05-07T21:58:22.522Z,56.02
2019-05-07T22:01:17.779Z,56.41
2019-05-07T22:03:52.443Z,56.33
2019-05-07T22:06:22.893Z,56.59
2019-05-07T22:08:54.848Z,56.60
2019-05-07T22:11:24.914Z,56.82
2019-05-07T22:13:55.153Z,57.07
2019-05-07T22:16:25.290Z,57.29
2019-05-07T22:18:55.407Z,57.22
2019-05-07T22:21:25.567Z,57.33
2019-05-07T22:23:55.678Z,57.32
2019-05-07T22:26:26.574Z,57.34
2019-05-07T22:28:56.954Z,57.48
2019-05-07T22:31:44.897Z,57.52
2019-05-07T22:34:42.818Z,57.61
2019-05-07T22:37:13.751Z,57.44
2019-05-07T22:39:48.210Z,57.63
2019-05-07T22:42:22.901Z,57.83
2019-05-07T22:44:54.181Z,57.72
2019-05-07T22:47:24.329Z,57.71
2019-05-07T22:49:54.430Z,57.84
2019-05-07T22:52:24.704Z,57.76
2019-05-07T22:54:54.849Z,57.74
2019-05-07T22:57:32.699Z,57.68
2019-05-07T23:00:04.582Z,57.66
2019-05-07T23:02:36.675Z,57.66
2019-05-07T23:05:07.123Z,57.75
2019-05-07T23:07:37.274Z,57.94
2019-05-07T23:10:07.499Z,57.91
2019-05-07T23:12:37.651Z,57.95
2019-05-07T23:15:08.112Z,58.34
2019-05-07T23:17:38.235Z,58.15
2019-05-07T23:20:08.354Z,58.19
2019-05-07T23:22:38.519Z,58.34
2019-05-07T23:25:08.872Z,58.61
2019-05-07T23:27:39.015Z,58.74
2019-05-07T23:30:09.354Z,58.80
2019-05-07T23:32:39.511Z,59.01
2019-05-07T23:35:09.722Z,59.37
2019-05-07T23:37:39.882Z,59.47
2019-05-07T23:40:26.009Z,59.32
2019-05-07T23:42:58.070Z,59.35
2019-05-07T23:45:28.186Z,59.24
2019-05-07T23:47:58.443Z,59.09
2019-05-07T23:50:28.583Z,59.37
2019-05-07T23:52:58.750Z,59.39
2019-05-07T23:55:28.904Z,59.33
2019-05-07T23:57:59.041Z,59.30
